Time;durP1;ratioP1;P1;durP2;ratioP2;P2;SDS_P1;SDS_P2;PMS_P1;PMS_P2;Temp;Humidity;BMP_temperature;BMP_pressure;BME280_temperature;BME280_humidity;BME280_pressure;Samples;Min_cycle;Max_cycle;Signal;HPM_P1;HPM_P2
2021/07/17 00:00:14;;;;;;;13.67;5.17;;;18.60;99.90;;;;;;5031506;28;20289;-51
2021/07/17 00:02:42;;;;;;;15.47;5.60;;;18.60;99.90;;;;;;5028090;28;20225;-51
2021/07/17 00:05:13;;;;;;;14.97;5.77;;;18.60;99.90;;;;;;5027434;28;20263;-51
2021/07/17 00:07:40;;;;;;;16.80;6.20;;;18.70;99.90;;;;;;5026886;28;20239;-51
2021/07/17 00:10:19;;;;;;;13.67;5.50;;;18.60;99.90;;;;;;5028262;28;20358;-51
2021/07/17 00:12:46;;;;;;;13.57;5.67;;;18.60;99.90;;;;;;5025953;28;20210;-51
2021/07/17 00:15:15;;;;;;;17.50;5.53;;;18.60;99.90;;;;;;5027468;28;20290;-51
2021/07/17 00:17:44;;;;;;;16.70;5.87;;;18.50;99.90;;;;;;5026199;28;20296;-51
2021/07/17 00:20:12;;;;;;;16.50;6.90;;;18.50;99.90;;;;;;5024674;28;20230;-51
2021/07/17 00:22:40;;;;;;;21.63;6.53;;;18.50;99.90;;;;;;5026357;28;20764;-51
2021/07/17 00:25:09;;;;;;;14.83;5.37;;;18.50;99.90;;;;;;5027185;28;20246;-51
2021/07/17 00:27:36;;;;;;;8.70;5.20;;;18.60;99.90;;;;;;5022814;28;20474;-51
2021/07/17 00:30:04;;;;;;;16.43;5.67;;;18.70;99.90;;;;;;5026668;28;20575;-51
2021/07/17 00:32:31;;;;;;;13.33;6.07;;;18.50;99.90;;;;;;5025891;28;20256;-51
2021/07/17 00:34:58;;;;;;;13.63;5.80;;;18.50;99.90;;;;;;5025796;28;20269;-51
2021/07/17 00:37:25;;;;;;;13.47;5.80;;;18.50;99.90;;;;;;5027114;28;20222;-51
2021/07/17 00:39:52;;;;;;;16.93;5.80;;;18.50;99.90;;;;;;5027303;28;20837;-51
2021/07/17 00:42:19;;;;;;;15.37;6.20;;;18.60;99.90;;;;;;5023264;28;20289;-51
2021/07/17 00:44:46;;;;;;;11.23;5.20;;;18.60;99.90;;;;;;5025109;28;20805;-51
2021/07/17 00:47:14;;;;;;;11.00;5.60;;;18.50;99.90;;;;;;5027644;28;20858;-51
2021/07/17 00:49:41;;;;;;;17.30;6.50;;;18.40;99.90;;;;;;5038279;28;20569;-51
2021/07/17 00:52:08;;;;;;;14.17;6.00;;;18.40;99.90;;;;;;5038253;28;20745;-51
2021/07/17 00:54:36;;;;;;;13.53;5.53;;;18.40;99.90;;;;;;5026496;28;20413;-51
2021/07/17 00:57:03;;;;;;;9.40;5.87;;;18.40;99.90;;;;;;5025509;28;20235;-51
2021/07/17 00:59:33;;;;;;;14.57;6.27;;;18.40;99.90;;;;;;5026057;28;20230;-50
2021/07/17 01:02:03;;;;;;;11.43;5.57;;;18.40;99.90;;;;;;5024545;28;20266;-51
2021/07/17 01:04:32;;;;;;;12.50;5.43;;;18.30;99.90;;;;;;5028880;28;20314;-51
2021/07/17 01:07:00;;;;;;;10.00;6.20;;;18.30;99.90;;;;;;5027414;28;20242;-50
2021/07/17 01:09:27;;;;;;;18.03;5.80;;;18.40;99.90;;;;;;5025142;28;20255;-51
2021/07/17 01:11:58;;;;;;;12.57;5.53;;;18.40;99.90;;;;;;5027799;28;20207;-51
2021/07/17 01:14:26;;;;;;;10.80;5.17;;;18.30;99.90;;;;;;5025929;28;20847;-51
2021/07/17 01:16:53;;;;;;;14.40;6.30;;;18.30;99.90;;;;;;5023775;28;20322;-51
2021/07/17 01:19:25;;;;;;;11.43;5.90;;;18.20;99.90;;;;;;5030066;28;20748;-51
2021/07/17 01:21:54;;;;;;;13.83;6.13;;;18.20;99.90;;;;;;5025113;28;20318;-51
2021/07/17 01:24:23;;;;;;;11.13;5.90;;;18.20;99.90;;;;;;5023389;28;20209;-50
2021/07/17 01:26:51;;;;;;;15.10;5.80;;;18.10;99.90;;;;;;5026877;28;20219;-51
2021/07/17 01:29:19;;;;;;;14.20;5.60;;;18.30;99.90;;;;;;5025601;28;20686;-50
2021/07/17 01:31:46;;;;;;;14.33;5.30;;;18.20;99.90;;;;;;5028098;28;20291;-51
2021/07/17 01:34:13;;;;;;;14.53;5.27;;;18.30;99.90;;;;;;5026756;28;20211;-51
2021/07/17 01:36:41;;;;;;;11.20;4.90;;;18.20;99.90;;;;;;5025603;28;20212;-51
2021/07/17 01:39:08;;;;;;;9.47;5.40;;;18.20;99.90;;;;;;5031313;28;20367;-51
2021/07/17 01:41:35;;;;;;;15.43;5.90;;;18.20;99.90;;;;;;5025605;28;20281;-51
2021/07/17 01:44:03;;;;;;;17.17;6.03;;;18.20;99.90;;;;;;5027652;28;20382;-51
2021/07/17 01:46:30;;;;;;;14.67;5.57;;;18.10;99.90;;;;;;5027823;28;20360;-51
2021/07/17 01:48:58;;;;;;;9.17;5.00;;;18.10;99.90;;;;;;5024795;28;20218;-51
2021/07/17 01:51:25;;;;;;;13.57;5.33;;;18.10;99.90;;;;;;5027373;28;20651;-51
2021/07/17 01:53:56;;;;;;;10.43;5.63;;;18.20;99.90;;;;;;5023522;28;20337;-51
2021/07/17 01:56:25;;;;;;;12.40;5.63;;;18.20;99.90;;;;;;5023952;28;20257;-51
2021/07/17 01:58:53;;;;;;;15.73;5.40;;;18.10;99.90;;;;;;5026540;28;20701;-51
2021/07/17 02:01:21;;;;;;;13.33;5.77;;;18.20;99.90;;;;;;5026884;28;20295;-51
2021/07/17 02:03:49;;;;;;;13.17;5.60;;;18.30;99.90;;;;;;5024676;28;20834;-50
2021/07/17 02:06:27;;;;;;;12.90;5.57;;;18.20;99.90;;;;;;5025372;28;20416;-51
2021/07/17 02:08:55;;;;;;;11.20;5.33;;;18.20;99.90;;;;;;5027391;28;20270;-51
2021/07/17 02:11:22;;;;;;;15.30;5.97;;;18.20;99.90;;;;;;5026611;28;20311;-51
2021/07/17 02:13:53;;;;;;;11.40;5.63;;;18.10;99.90;;;;;;5026579;28;20258;-50
2021/07/17 02:16:21;;;;;;;12.33;5.53;;;18.10;99.90;;;;;;5028135;28;20269;-51
2021/07/17 02:18:49;;;;;;;15.73;5.73;;;18.10;99.90;;;;;;5028340;28;20208;-51
2021/07/17 02:21:16;;;;;;;10.93;5.70;;;18.00;99.90;;;;;;5027788;28;20235;-51
2021/07/17 02:23:44;;;;;;;10.40;5.00;;;17.90;99.90;;;;;;5022504;28;20312;-51
2021/07/17 02:26:11;;;;;;;14.17;5.23;;;17.90;99.90;;;;;;5029444;28;20235;-51
2021/07/17 02:28:39;;;;;;;15.50;5.93;;;18.00;99.90;;;;;;5027276;28;20246;-51
2021/07/17 02:31:07;;;;;;;12.60;5.73;;;18.00;99.90;;;;;;5026885;28;20355;-51
2021/07/17 02:33:34;;;;;;;14.53;5.80;;;17.90;99.90;;;;;;5032002;28;20217;-51
2021/07/17 02:36:01;;;;;;;13.53;5.87;;;17.90;99.90;;;;;;5029702;28;20346;-51
2021/07/17 02:38:28;;;;;;;11.97;5.43;;;17.90;99.90;;;;;;5026735;28;20345;-51
2021/07/17 02:40:55;;;;;;;11.60;6.30;;;18.00;99.90;;;;;;5026784;28;20554;-51
2021/07/17 02:43:22;;;;;;;11.93;5.40;;;18.10;99.90;;;;;;5026147;28;20666;-51
2021/07/17 02:45:49;;;;;;;18.07;5.70;;;18.10;99.90;;;;;;5027962;28;20365;-51
2021/07/17 02:48:16;;;;;;;17.03;6.03;;;18.00;99.90;;;;;;5031774;28;20316;-51
2021/07/17 02:50:43;;;;;;;16.23;5.70;;;18.00;99.90;;;;;;5028616;28;20211;-51
2021/07/17 02:53:10;;;;;;;16.67;6.50;;;17.90;99.90;;;;;;5026247;28;20613;-50
2021/07/17 02:55:37;;;;;;;16.53;6.00;;;17.80;99.90;;;;;;5030082;28;20598;-50
2021/07/17 02:58:04;;;;;;;16.20;6.53;;;17.80;99.90;;;;;;5029609;28;20288;-51
2021/07/17 03:00:34;;;;;;;12.10;5.47;;;17.80;99.90;;;;;;5030157;28;20285;-51
2021/07/17 03:03:02;;;;;;;9.53;5.07;;;17.80;99.90;;;;;;5027715;28;20733;-51
2021/07/17 03:05:29;;;;;;;13.70;6.03;;;17.90;99.90;;;;;;5029845;28;20251;-51
2021/07/17 03:07:56;;;;;;;15.07;5.30;;;17.80;99.90;;;;;;5043020;28;20238;-51
2021/07/17 03:10:23;;;;;;;16.17;5.93;;;17.80;99.90;;;;;;5034446;28;20288;-50
2021/07/17 03:12:50;;;;;;;11.20;6.40;;;17.70;99.90;;;;;;5025575;28;20309;-51
2021/07/17 03:15:17;;;;;;;12.33;5.60;;;17.80;99.90;;;;;;5028479;28;20703;-51
2021/07/17 03:17:44;;;;;;;11.97;5.60;;;17.80;99.90;;;;;;5027071;28;20632;-51
2021/07/17 03:20:11;;;;;;;10.23;5.80;;;17.70;99.90;;;;;;5028390;28;20531;-51
2021/07/17 03:22:38;;;;;;;17.50;6.40;;;17.80;99.90;;;;;;5028508;28;20608;-51
2021/07/17 03:25:05;;;;;;;14.70;6.07;;;17.80;99.90;;;;;;5027622;28;20300;-51
2021/07/17 03:27:32;;;;;;;16.23;5.83;;;17.80;99.90;;;;;;5026612;28;20209;-50
2021/07/17 03:29:59;;;;;;;10.27;5.50;;;17.70;99.90;;;;;;5028543;28;20299;-51
2021/07/17 03:32:29;;;;;;;15.13;6.37;;;17.70;99.90;;;;;;5026215;28;20251;-51
2021/07/17 03:34:56;;;;;;;10.27;5.40;;;17.80;99.90;;;;;;5026139;28;20295;-51
2021/07/17 03:37:23;;;;;;;14.73;6.10;;;17.70;99.90;;;;;;5028546;28;20301;-51
2021/07/17 03:39:50;;;;;;;18.00;5.93;;;17.80;99.90;;;;;;5025208;28;20206;-51
2021/07/17 03:42:17;;;;;;;13.43;5.47;;;17.80;99.90;;;;;;5032260;28;20196;-51
2021/07/17 03:44:44;;;;;;;15.80;6.33;;;17.80;99.90;;;;;;5035266;28;20754;-51
2021/07/17 03:47:11;;;;;;;11.40;5.37;;;17.70;99.90;;;;;;5036637;28;20216;-51
2021/07/17 03:49:38;;;;;;;11.90;6.20;;;17.70;99.90;;;;;;5029620;28;20269;-50
2021/07/17 03:52:05;;;;;;;14.03;6.00;;;17.80;99.90;;;;;;5030625;28;20353;-51
2021/07/17 03:54:32;;;;;;;13.87;6.40;;;17.80;99.90;;;;;;5029349;28;20623;-51
2021/07/17 03:56:59;;;;;;;12.07;6.43;;;17.80;99.90;;;;;;5028530;28;20584;-51
2021/07/17 03:59:26;;;;;;;11.23;5.53;;;17.80;99.90;;;;;;5026860;28;20215;-51
2021/07/17 04:01:53;;;;;;;15.40;5.87;;;17.80;99.90;;;;;;5027539;28;20294;-51
2021/07/17 04:04:21;;;;;;;12.90;5.60;;;17.80;99.90;;;;;;5026986;28;20584;-51
2021/07/17 04:06:48;;;;;;;15.80;6.47;;;17.80;99.90;;;;;;5029314;28;20743;-51
2021/07/17 04:09:15;;;;;;;14.67;6.43;;;17.90;99.90;;;;;;5024783;28;20298;-51
2021/07/17 04:11:42;;;;;;;15.50;5.47;;;17.90;99.90;;;;;;5025861;28;20223;-51
2021/07/17 04:14:09;;;;;;;14.33;5.97;;;17.90;99.90;;;;;;5026920;28;22032;-51
2021/07/17 04:16:35;;;;;;;13.87;6.47;;;17.90;99.90;;;;;;5026417;28;20226;-51
2021/07/17 04:19:03;;;;;;;15.13;5.50;;;17.60;99.90;;;;;;5031956;28;20203;-51
2021/07/17 04:21:29;;;;;;;18.23;6.03;;;17.70;99.90;;;;;;5025765;28;21347;-51
2021/07/17 04:23:56;;;;;;;20.77;5.73;;;17.70;99.90;;;;;;5023998;28;20203;-51
2021/07/17 04:26:23;;;;;;;18.00;6.17;;;17.70;99.90;;;;;;5030317;28;20710;-51
2021/07/17 04:28:53;;;;;;;15.30;5.33;;;17.70;99.90;;;;;;5024767;28;20321;-51
2021/07/17 04:31:20;;;;;;;19.17;6.00;;;17.80;99.90;;;;;;5027203;28;20235;-51
2021/07/17 04:33:47;;;;;;;14.73;5.57;;;17.90;99.90;;;;;;5026565;28;20207;-51
2021/07/17 04:36:14;;;;;;;13.83;5.23;;;17.80;99.90;;;;;;5029875;28;20217;-51
2021/07/17 04:38:41;;;;;;;14.00;5.57;;;17.90;99.90;;;;;;5023032;28;20293;-51
2021/07/17 04:41:08;;;;;;;10.43;5.17;;;17.80;99.90;;;;;;5030479;28;20622;-51
2021/07/17 04:43:35;;;;;;;14.97;5.77;;;17.80;99.90;;;;;;5025439;28;20313;-51
2021/07/17 04:46:02;;;;;;;16.60;5.70;;;17.90;99.90;;;;;;5030894;28;20297;-51
2021/07/17 04:48:29;;;;;;;17.10;6.53;;;17.90;99.90;;;;;;5027853;28;20305;-51
2021/07/17 04:50:56;;;;;;;15.53;6.37;;;17.80;99.90;;;;;;5025956;28;20532;-51
2021/07/17 04:53:22;;;;;;;14.13;5.73;;;17.90;99.90;;;;;;5025711;28;20331;-51
2021/07/17 04:55:49;;;;;;;11.07;5.17;;;17.90;99.90;;;;;;5027593;28;20226;-51
2021/07/17 04:58:16;;;;;;;14.80;5.93;;;17.90;99.90;;;;;;5024096;28;20298;-50
2021/07/17 05:00:43;;;;;;;16.67;5.93;;;17.80;99.90;;;;;;5023489;28;20222;-51
2021/07/17 05:03:10;;;;;;;16.30;6.50;;;17.80;99.90;;;;;;5024092;28;20209;-51
2021/07/17 05:05:37;;;;;;;15.27;5.80;;;17.90;99.90;;;;;;5025408;28;20204;-51
2021/07/17 05:08:04;;;;;;;21.00;6.40;;;18.00;99.90;;;;;;5019258;28;20209;-51
2021/07/17 05:10:31;;;;;;;11.03;5.83;;;17.90;99.90;;;;;;5026745;28;20326;-51
2021/07/17 05:12:58;;;;;;;16.97;5.80;;;18.00;99.90;;;;;;5023446;28;20583;-51
2021/07/17 05:15:25;;;;;;;18.57;6.57;;;18.10;99.90;;;;;;5026652;28;20224;-52
2021/07/17 05:17:51;;;;;;;12.57;5.97;;;18.10;99.90;;;;;;5023348;28;20210;-51
2021/07/17 05:20:18;;;;;;;14.77;5.63;;;18.10;99.90;;;;;;5024131;28;20203;-51
2021/07/17 05:22:45;;;;;;;15.47;5.63;;;18.30;99.90;;;;;;5021520;28;20193;-51
2021/07/17 05:25:14;;;;;;;15.93;5.13;;;18.20;99.90;;;;;;5020024;28;20231;-51
2021/07/17 05:27:40;;;;;;;17.17;6.30;;;18.20;99.90;;;;;;5024268;28;20211;-60
2021/07/17 05:30:08;;;;;;;10.67;5.63;;;18.00;99.90;;;;;;5026564;28;20663;-51
2021/07/17 05:32:35;;;;;;;17.87;5.47;;;17.90;99.90;;;;;;5021239;28;20341;-51
2021/07/17 05:35:03;;;;;;;15.80;5.50;;;17.90;99.90;;;;;;5024118;28;20311;-51
2021/07/17 05:37:29;;;;;;;13.47;5.30;;;18.10;99.90;;;;;;5024477;28;20206;-51
2021/07/17 05:39:57;;;;;;;13.30;5.53;;;18.20;99.90;;;;;;5028170;28;20298;-51
2021/07/17 05:42:24;;;;;;;19.03;5.67;;;18.00;99.90;;;;;;5020552;28;20265;-51
2021/07/17 05:44:51;;;;;;;13.93;5.20;;;18.00;99.90;;;;;;5024507;28;20274;-51
2021/07/17 05:47:18;;;;;;;17.63;6.43;;;18.10;99.90;;;;;;5026479;28;20633;-51
2021/07/17 05:49:50;;;;;;;12.43;5.00;;;18.10;99.90;;;;;;5024241;28;20211;-51
2021/07/17 05:52:19;;;;;;;10.80;4.70;;;18.00;99.90;;;;;;5029403;28;20286;-51
2021/07/17 05:54:46;;;;;;;12.70;4.97;;;18.00;99.90;;;;;;5026454;28;20576;-51
2021/07/17 05:57:12;;;;;;;21.80;5.50;;;17.90;99.90;;;;;;5026001;28;20361;-51
2021/07/17 05:59:39;;;;;;;14.60;5.17;;;18.10;99.90;;;;;;5032517;28;20222;-51
2021/07/17 06:02:06;;;;;;;14.03;5.20;;;18.10;99.90;;;;;;5023645;28;20734;-51
2021/07/17 06:04:36;;;;;;;11.20;4.87;;;18.00;99.90;;;;;;5031845;28;20212;-51
2021/07/17 06:07:03;;;;;;;16.27;6.17;;;18.00;99.90;;;;;;5031454;28;20631;-51
2021/07/17 06:09:29;;;;;;;13.70;5.33;;;18.00;99.90;;;;;;5029781;28;20337;-51
2021/07/17 06:11:56;;;;;;;19.07;6.00;;;18.10;99.90;;;;;;5028934;28;20240;-51
2021/07/17 06:14:24;;;;;;;20.77;5.43;;;18.10;99.90;;;;;;5028422;28;20210;-50
2021/07/17 06:16:51;;;;;;;12.87;4.97;;;18.20;99.90;;;;;;5036824;28;20252;-51
2021/07/17 06:19:18;;;;;;;11.83;4.97;;;18.30;99.90;;;;;;5029921;28;20203;-51
2021/07/17 06:21:45;;;;;;;17.37;5.20;;;18.30;99.90;;;;;;5029300;28;20288;-50
2021/07/17 06:24:11;;;;;;;17.13;5.60;;;18.30;99.90;;;;;;5025853;28;20722;-51
2021/07/17 06:26:38;;;;;;;13.40;4.93;;;18.30;99.90;;;;;;5026843;28;20208;-51
2021/07/17 06:29:05;;;;;;;14.67;4.30;;;18.30;99.90;;;;;;5024581;28;20211;-51
2021/07/17 06:31:32;;;;;;;9.57;4.63;;;18.40;99.90;;;;;;5027557;28;20344;-51
2021/07/17 06:33:59;;;;;;;11.40;4.40;;;18.40;99.90;;;;;;5023384;28;20721;-51
2021/07/17 06:36:25;;;;;;;10.03;4.60;;;18.50;99.90;;;;;;5025177;28;20294;-51
2021/07/17 06:38:52;;;;;;;9.73;4.07;;;18.50;99.90;;;;;;5029365;28;20712;-51
2021/07/17 06:41:19;;;;;;;13.00;4.90;;;18.50;99.90;;;;;;5037690;28;20296;-51
2021/07/17 06:43:46;;;;;;;10.30;4.13;;;18.60;99.90;;;;;;5033678;28;20491;-51
2021/07/17 06:46:13;;;;;;;9.53;4.23;;;18.80;99.90;;;;;;5036733;28;20236;-51
2021/07/17 06:48:40;;;;;;;12.37;4.03;;;18.80;99.90;;;;;;5030390;28;20318;-51
2021/07/17 06:51:08;;;;;;;12.73;4.20;;;19.00;99.90;;;;;;5029498;28;20679;-51
2021/07/17 06:53:36;;;;;;;11.93;4.00;;;19.10;99.90;;;;;;5026152;28;20234;-51
2021/07/17 06:56:03;;;;;;;8.83;3.43;;;19.30;99.90;;;;;;5025719;28;20320;-51
2021/07/17 06:58:30;;;;;;;8.00;3.90;;;19.30;99.90;;;;;;5029816;28;20756;-51
2021/07/17 07:00:57;;;;;;;10.07;3.53;;;19.50;99.90;;;;;;5027999;28;20238;-51
2021/07/17 07:03:24;;;;;;;8.80;3.33;;;19.40;99.90;;;;;;5026432;28;20281;-51
2021/07/17 07:05:52;;;;;;;14.93;4.30;;;19.50;99.90;;;;;;5028892;28;20292;-51
2021/07/17 07:08:20;;;;;;;11.53;3.53;;;19.70;99.90;;;;;;5026000;28;20784;-50
2021/07/17 07:10:46;;;;;;;5.17;3.40;;;19.90;99.90;;;;;;5034109;28;20280;-51
2021/07/17 07:13:16;;;;;;;7.93;3.23;;;19.80;99.90;;;;;;5026769;28;20961;-51
2021/07/17 07:15:43;;;;;;;12.13;4.00;;;19.60;99.90;;;;;;5021336;28;20303;-51
2021/07/17 07:18:12;;;;;;;8.67;3.60;;;19.90;99.90;;;;;;5011299;28;20631;-51
2021/07/17 07:20:39;;;;;;;7.93;3.40;;;19.80;99.90;;;;;;5031039;28;20738;-51
2021/07/17 07:23:06;;;;;;;10.20;3.80;;;20.10;99.90;;;;;;5032340;28;20627;-51
2021/07/17 07:25:33;;;;;;;7.27;3.40;;;20.30;99.90;;;;;;5034362;28;20526;-51
2021/07/17 07:28:00;;;;;;;6.10;3.30;;;20.40;99.90;;;;;;5034562;28;20211;-51
2021/07/17 07:30:27;;;;;;;7.63;3.43;;;20.30;99.90;;;;;;5041550;28;20207;-51
2021/07/17 07:32:54;;;;;;;11.07;4.00;;;20.40;99.90;;;;;;5040368;28;20278;-50
2021/07/17 07:35:22;;;;;;;10.37;3.20;;;20.40;99.90;;;;;;5044654;28;20726;-51
2021/07/17 07:37:50;;;;;;;5.10;3.00;;;20.20;99.90;;;;;;5041676;28;20234;-51
2021/07/17 07:40:18;;;;;;;6.63;3.33;;;20.20;99.90;;;;;;5043986;28;20250;-51
2021/07/17 07:42:46;;;;;;;6.30;3.63;;;20.50;99.90;;;;;;5042891;28;20247;-50
2021/07/17 07:45:13;;;;;;;7.87;3.60;;;21.00;99.90;;;;;;5038470;28;20275;-51
2021/07/17 07:47:40;;;;;;;8.47;2.90;;;21.00;14.30;;;;;;5041605;28;20242;-51
2021/07/17 07:50:08;;;;;;;7.40;3.43;;;21.20;39.00;;;;;;5044982;28;20676;-51
2021/07/17 07:52:35;;;;;;;6.17;2.37;;;21.10;1.00;;;;;;5044518;28;20274;-51
2021/07/17 07:55:04;;;;;;;5.93;2.70;;;21.10;1.00;;;;;;5043436;28;20231;-51
2021/07/17 07:57:31;;;;;;;7.83;3.00;;;20.90;1.00;;;;;;5039486;28;20225;-51
2021/07/17 07:59:58;;;;;;;8.23;2.67;;;21.10;1.00;;;;;;5045943;28;20204;-51
2021/07/17 08:02:26;;;;;;;7.33;2.90;;;21.00;1.00;;;;;;5044264;28;20696;-51
2021/07/17 08:04:53;;;;;;;7.67;2.80;;;21.40;1.00;;;;;;5044184;28;20234;-51
2021/07/17 08:07:20;;;;;;;6.90;2.63;;;21.20;1.00;;;;;;5043162;28;20244;-51
2021/07/17 08:09:50;;;;;;;7.63;3.23;;;21.70;1.00;;;;;;5042750;28;20234;-51
2021/07/17 08:12:17;;;;;;;6.53;2.60;;;21.60;1.00;;;;;;5044847;28;20210;-51
2021/07/17 08:14:44;;;;;;;5.70;2.77;;;21.80;1.00;;;;;;5056624;28;20297;-51
2021/07/17 08:17:11;;;;;;;8.33;2.83;;;21.90;1.00;;;;;;5039624;28;20257;-51
2021/07/17 08:19:38;;;;;;;5.70;2.93;;;22.00;1.00;;;;;;5039894;28;20203;-51
2021/07/17 08:22:04;;;;;;;10.40;2.90;;;21.90;1.00;;;;;;5039558;28;20286;-51
2021/07/17 08:24:31;;;;;;;9.97;3.20;;;21.90;1.00;;;;;;5039550;28;20301;-51
2021/07/17 08:26:58;;;;;;;7.03;2.77;;;22.50;1.00;;;;;;5043472;28;20727;-51
2021/07/17 08:29:25;;;;;;;8.63;2.60;;;22.60;99.90;;;;;;5037930;28;20297;-51
2021/07/17 08:31:51;;;;;;;5.17;2.60;;;22.60;1.00;;;;;;5043133;28;20322;-50
2021/07/17 08:34:18;;;;;;;7.10;2.40;;;22.90;99.90;;;;;;5038495;28;20743;-51
2021/07/17 08:36:45;;;;;;;6.63;2.50;;;23.20;1.00;;;;;;5043898;28;20266;-50
2021/07/17 08:39:11;;;;;;;5.47;2.50;;;23.00;74.80;;;;;;5039831;28;20291;-52
2021/07/17 08:41:46;;;;;;;5.40;2.07;;;22.90;1.00;;;;;;5042792;28;20241;-51
2021/07/17 08:44:16;;;;;;;5.73;2.13;;;23.20;1.00;;;;;;5038206;28;20326;-51
2021/07/17 08:46:45;;;;;;;6.67;1.80;;;23.00;1.00;;;;;;5043302;28;20296;-50
2021/07/17 08:49:12;;;;;;;9.70;2.70;;;23.00;1.00;;;;;;5038383;28;20329;-51
2021/07/17 08:51:39;;;;;;;6.27;2.73;;;23.00;54.00;;;;;;5043729;28;20299;-50
2021/07/17 08:54:06;;;;;;;6.83;2.33;;;23.30;1.00;;;;;;5037035;28;20218;-50
2021/07/17 08:56:33;;;;;;;7.50;2.60;;;23.50;1.00;;;;;;5040245;28;20250;-50
2021/07/17 08:59:00;;;;;;;5.50;2.20;;;23.30;1.00;;;;;;5037844;28;20202;-50
2021/07/17 09:01:26;;;;;;;3.83;1.93;;;22.80;99.90;;;;;;5041681;28;20571;-50
2021/07/17 09:03:54;;;;;;;7.03;2.00;;;22.80;99.90;;;;;;5041022;28;20229;-50
2021/07/17 09:06:21;;;;;;;4.87;1.77;;;23.00;44.60;;;;;;5043006;28;20302;-50
2021/07/17 09:08:51;;;;;;;6.97;2.00;;;22.80;1.00;;;;;;5039004;28;20199;-51
2021/07/17 09:11:18;;;;;;;4.63;2.20;;;22.80;99.90;;;;;;5041766;28;20663;-50
2021/07/17 09:13:45;;;;;;;5.53;1.87;;;23.50;1.00;;;;;;5037725;28;20199;-51
2021/07/17 09:16:12;;;;;;;4.17;1.70;;;23.70;99.90;;;;;;5042509;28;20216;-51
2021/07/17 09:18:46;;;;;;;6.57;2.43;;;23.50;1.00;;;;;;5042210;28;20208;-51
2021/07/17 09:21:24;;;;;;;6.27;2.23;;;23.60;99.90;;;;;;5040429;28;20238;-50
2021/07/17 09:23:56;;;;;;;5.10;1.90;;;23.30;99.90;;;;;;5041057;28;20292;-50
2021/07/17 09:26:24;;;;;;;4.07;1.90;;;23.30;1.00;;;;;;5038878;28;20235;-51
2021/07/17 09:29:07;;;;;;;6.77;2.23;;;23.20;1.00;;;;;;5042709;28;20290;-51
2021/07/17 09:31:37;;;;;;;3.37;1.80;;;23.20;1.00;;;;;;5046532;28;20293;-50
2021/07/17 09:34:05;;;;;;;3.87;1.83;;;24.10;30.00;;;;;;5045923;28;20716;-50
2021/07/17 09:36:33;;;;;;;5.87;1.83;;;23.80;1.00;;;;;;5047417;28;20316;-50
2021/07/17 09:39:00;;;;;;;3.47;1.60;;;24.00;99.90;;;;;;5043232;28;20292;-50
2021/07/17 09:41:27;;;;;;;8.17;1.60;;;24.20;1.00;;;;;;5044720;28;20555;-50
2021/07/17 09:44:02;;;;;;;4.83;2.20;;;24.70;1.00;;;;;;5044141;28;20339;-51
2021/07/17 09:46:31;;;;;;;2.73;1.53;;;24.50;1.00;;;;;;5047534;28;20672;-50
2021/07/17 09:49:03;;;;;;;3.97;1.90;;;24.40;99.90;;;;;;5045928;28;20200;-51
2021/07/17 09:51:32;;;;;;;3.37;1.20;;;24.20;1.00;;;;;;5046355;28;20239;-51
2021/07/17 09:54:02;;;;;;;6.17;1.80;;;24.30;99.90;;;;;;5039132;28;20208;-50
2021/07/17 09:56:31;;;;;;;2.00;1.33;;;24.10;99.90;;;;;;5046470;28;20302;-51
2021/07/17 09:58:59;;;;;;;2.80;1.30;;;23.70;1.00;;;;;;5040708;28;20223;-50
2021/07/17 10:01:33;;;;;;;2.87;1.40;;;23.50;99.90;;;;;;5045674;28;20415;-51
2021/07/17 10:04:12;;;;;;;6.37;1.90;;;23.70;99.90;;;;;;5044675;28;20297;-50
2021/07/17 10:06:41;;;;;;;3.33;1.67;;;23.80;1.00;;;;;;5045714;28;20235;-50
2021/07/17 10:09:14;;;;;;;6.67;1.53;;;24.00;1.00;;;;;;5043761;28;20310;-50
2021/07/17 10:11:43;;;;;;;4.63;1.80;;;23.80;1.00;;;;;;5043690;28;20313;-50
2021/07/17 10:14:28;;;;;;;2.23;1.40;;;23.70;1.00;;;;;;5040828;28;20208;-50
2021/07/17 10:16:58;;;;;;;6.57;2.27;;;24.10;5.40;;;;;;5045437;28;20221;-50
2021/07/17 10:19:27;;;;;;;3.67;1.47;;;24.00;1.00;;;;;;5043590;28;20254;-51
2021/07/17 10:21:55;;;;;;;2.87;1.50;;;24.10;1.00;;;;;;5042139;28;20232;-50
2021/07/17 10:24:24;;;;;;;2.67;1.67;;;24.30;1.00;;;;;;5041773;28;20667;-50
2021/07/17 10:26:52;;;;;;;3.77;2.07;;;24.00;99.90;;;;;;5045234;28;20238;-51
2021/07/17 10:29:20;;;;;;;4.40;2.00;;;23.70;1.00;;;;;;5038778;28;20292;-50
2021/07/17 10:31:49;;;;;;;3.50;1.53;;;23.80;1.00;;;;;;5045897;28;20339;-51
2021/07/17 10:34:17;;;;;;;4.37;1.73;;;24.10;1.00;;;;;;5041600;28;20201;-50
2021/07/17 10:37:06;;;;;;;3.90;1.60;;;24.10;99.90;;;;;;5043033;28;20722;-50
2021/07/17 10:39:36;;;;;;;2.80;1.60;;;24.20;1.00;;;;;;5043674;28;20238;-50
2021/07/17 10:42:15;;;;;;;6.00;1.83;;;24.20;99.90;;;;;;5044517;28;20237;-51
2021/07/17 10:44:46;;;;;;;4.20;1.50;;;24.00;99.90;;;;;;5044387;28;20319;-50
2021/07/17 10:47:13;;;;;;;2.07;1.37;;;24.10;1.00;;;;;;5043276;28;20839;-50
2021/07/17 10:49:46;;;;;;;5.37;1.70;;;24.10;99.90;;;;;;5043380;28;20205;-50
2021/07/17 10:52:14;;;;;;;4.30;1.50;;;24.10;1.00;;;;;;5042472;28;20274;-50
2021/07/17 10:54:41;;;;;;;3.50;1.67;;;24.10;1.00;;;;;;5041950;28;20284;-50
2021/07/17 10:57:09;;;;;;;2.20;1.17;;;24.30;1.00;;;;;;5044188;28;20211;-50
2021/07/17 10:59:36;;;;;;;3.30;1.20;;;24.30;1.00;;;;;;5040773;28;20296;-50
2021/07/17 11:02:05;;;;;;;2.83;1.27;;;24.40;1.00;;;;;;5044661;28;20318;-50
2021/07/17 11:04:51;;;;;;;2.17;1.30;;;24.40;1.00;;;;;;5044362;28;20279;-50
2021/07/17 11:07:18;;;;;;;2.63;1.60;;;24.70;1.00;;;;;;5045546;28;20609;-50
2021/07/17 11:09:59;;;;;;;4.43;1.40;;;24.50;1.00;;;;;;5044880;28;20300;-50
2021/07/17 11:12:35;;;;;;;3.90;1.40;;;24.80;1.00;;;;;;5044614;28;20637;-51
2021/07/17 11:15:05;;;;;;;3.50;1.40;;;25.00;1.00;;;;;;5043109;28;20316;-50
2021/07/17 11:17:41;;;;;;;5.87;2.10;;;25.10;1.00;;;;;;5038375;28;20260;-50
2021/07/17 11:20:34;;;;;;;3.77;1.53;;;25.20;1.00;;;;;;5034347;28;20213;-50
2021/07/17 11:23:01;;;;;;;3.93;1.87;;;25.80;1.00;;;;;;5032649;28;20422;-51
2021/07/17 11:25:28;;;;;;;3.17;1.30;;;25.70;99.90;;;;;;5042107;28;20301;-50
2021/07/17 11:27:55;;;;;;;4.33;1.33;;;26.00;99.90;;;;;;5038350;28;20283;-50
2021/07/17 11:30:23;;;;;;;2.50;1.10;;;26.10;1.00;;;;;;5028157;28;20294;-50
2021/07/17 11:33:05;;;;;;;3.20;1.30;;;25.70;1.00;;;;;;5026811;28;21695;-51
2021/07/17 11:35:40;;;;;;;2.27;1.77;;;26.00;99.90;;;;;;5038467;28;21040;-50
2021/07/17 11:38:09;;;;;;;4.53;1.93;;;26.40;1.00;;;;;;5027378;28;20324;-51
2021/07/17 11:40:37;;;;;;;3.00;1.70;;;26.60;1.00;;;;;;5026628;28;20330;-51
2021/07/17 11:43:06;;;;;;;1.97;1.40;;;26.40;1.00;;;;;;5025603;28;20303;-53
2021/07/17 11:45:33;;;;;;;2.83;1.30;;;26.70;1.00;;;;;;5026660;28;20372;-50
2021/07/17 11:48:07;;;;;;;2.20;1.13;;;26.70;1.00;;;;;;5028744;28;20205;-50
2021/07/17 11:50:35;;;;;;;2.90;1.93;;;27.20;1.00;;;;;;5034074;28;20605;-50
2021/07/17 11:53:12;;;;;;;3.30;1.30;;;26.20;1.00;;;;;;5026382;28;20229;-51
2021/07/17 11:55:39;;;;;;;3.93;1.40;;;25.60;1.00;;;;;;5045791;28;20204;-51
2021/07/17 11:58:16;;;;;;;4.37;1.30;;;25.90;1.00;;;;;;5032160;28;20214;-50
2021/07/17 12:00:44;;;;;;;4.23;1.20;;;26.30;1.00;;;;;;5038802;28;20242;-50
2021/07/17 12:03:11;;;;;;;1.97;1.00;;;26.40;1.00;;;;;;5034841;28;20196;-51
2021/07/17 12:05:38;;;;;;;3.13;1.50;;;26.20;1.00;;;;;;5043199;28;20298;-50
2021/07/17 12:08:05;;;;;;;5.57;1.20;;;26.40;1.00;;;;;;5037636;28;20235;-51
2021/07/17 12:10:32;;;;;;;4.40;1.27;;;26.40;1.00;;;;;;5041394;28;20246;-51
2021/07/17 12:13:03;;;;;;;3.40;1.10;;;26.70;1.00;;;;;;5034701;28;20204;-50
2021/07/17 12:15:35;;;;;;;3.13;0.90;;;26.60;99.90;;;;;;5037688;28;20258;-51
2021/07/17 12:18:06;;;;;;;1.80;1.20;;;26.20;1.00;;;;;;5034939;28;20220;-50
2021/07/17 12:20:53;;;;;;;2.93;1.10;;;26.00;1.00;;;;;;5034724;28;20245;-50
2021/07/17 12:23:21;;;;;;;5.07;1.20;;;26.10;1.00;;;;;;5024165;28;20208;-51
2021/07/17 12:25:52;;;;;;;3.13;1.20;;;26.00;1.00;;;;;;5034580;28;20238;-50
2021/07/17 12:28:24;;;;;;;2.63;1.13;;;26.30;1.00;;;;;;5042701;28;20245;-50
2021/07/17 12:30:56;;;;;;;2.90;1.10;;;26.50;1.00;;;;;;5034986;28;20296;-50
2021/07/17 12:33:36;;;;;;;2.00;0.97;;;26.90;1.00;;;;;;5036465;28;20247;-51
2021/07/17 12:36:12;;;;;;;1.70;1.27;;;26.50;99.90;;;;;;5036080;28;20233;-50
2021/07/17 12:38:45;;;;;;;2.63;1.10;;;26.10;1.00;;;;;;5035583;28;20659;-50
2021/07/17 12:41:18;;;;;;;3.10;1.30;;;26.30;1.00;;;;;;5036503;28;20233;-50
2021/07/17 12:44:02;;;;;;;3.13;1.30;;;26.70;1.00;;;;;;5033606;28;20376;-50
2021/07/17 12:46:40;;;;;;;2.27;1.00;;;26.90;1.00;;;;;;5039131;28;20670;-50
2021/07/17 12:49:11;;;;;;;1.97;1.07;;;27.00;99.90;;;;;;5033541;28;20361;-50
2021/07/17 12:51:40;;;;;;;2.20;0.97;;;26.40;1.00;;;;;;5036068;28;20298;-50